Time;durP1;ratioP1;P1;durP2;ratioP2;P2;SDS_P1;SDS_P2;PMS_P1;PMS_P2;Temp;Humidity;BMP_temperature;BMP_pressure;BME280_temperature;BME280_humidity;BME280_pressure;Samples;Min_cycle;Max_cycle;Signal;HPM_P1;HPM_P2
2022/01/28 00:01:42;;;;;;;9.25;6.20;;;5.30;85.00;;;;;;5114135;27;20310;-71
2022/01/28 00:04:16;;;;;;;8.30;5.80;;;5.30;85.10;;;;;;5123161;27;20671;-71
2022/01/28 00:06:44;;;;;;;10.10;7.00;;;5.40;85.00;;;;;;5119820;27;20221;-73
2022/01/28 00:09:12;;;;;;;8.35;7.15;;;5.30;85.00;;;;;;5118689;27;20210;-71
2022/01/28 00:11:41;;;;;;;10.32;6.80;;;5.30;85.10;;;;;;5111446;27;20239;-71
2022/01/28 00:14:17;;;;;;;10.68;7.10;;;5.30;85.10;;;;;;5112082;27;20718;-71
2022/01/28 00:17:16;;;;;;;10.32;7.63;;;5.40;85.10;;;;;;5111166;27;20225;-71
2022/01/28 00:36:44;;;;;;;9.23;7.25;;;5.30;85.10;;;;;;5094721;27;20290;-70
2022/01/28 00:39:12;;;;;;;11.88;7.63;;;5.30;85.10;;;;;;5113827;27;20209;-69
2022/01/28 00:41:40;;;;;;;10.65;6.90;;;5.30;85.10;;;;;;5091755;27;20676;-70
2022/01/28 00:44:08;;;;;;;10.23;6.47;;;5.30;85.10;;;;;;5114736;27;20853;-70
2022/01/28 00:46:36;;;;;;;8.77;6.32;;;5.30;85.20;;;;;;5112273;27;20218;-70
2022/01/28 00:49:04;;;;;;;10.90;6.53;;;5.30;85.20;;;;;;5110840;27;20198;-70
2022/01/28 00:51:33;;;;;;;9.20;6.43;;;5.30;85.20;;;;;;5113143;27;20197;-69
2022/01/28 00:54:01;;;;;;;10.77;6.18;;;5.40;85.10;;;;;;5092880;27;20228;-70
2022/01/28 00:56:29;;;;;;;12.40;7.80;;;5.40;85.10;;;;;;5115598;27;20217;-70
2022/01/28 00:58:57;;;;;;;12.85;6.55;;;5.40;85.20;;;;;;5112552;27;20263;-70
2022/01/28 01:01:29;;;;;;;12.90;6.90;;;5.40;85.10;;;;;;5116360;27;20227;-70
2022/01/28 01:03:57;;;;;;;9.75;6.15;;;5.30;85.20;;;;;;5112424;27;20206;-70
2022/01/28 01:06:25;;;;;;;11.18;6.68;;;5.40;85.20;;;;;;5112098;27;21091;-69
2022/01/28 01:08:54;;;;;;;9.63;6.85;;;5.40;85.20;;;;;;5112642;27;20250;-70
2022/01/28 01:11:23;;;;;;;10.70;7.60;;;5.40;85.20;;;;;;5113770;27;20197;-70
2022/01/28 01:13:53;;;;;;;12.15;7.78;;;5.40;85.30;;;;;;5090019;28;20207;-70
2022/01/28 01:16:28;;;;;;;12.30;6.75;;;5.40;85.30;;;;;;5081407;28;20241;-69
2022/01/28 01:19:12;;;;;;;13.15;8.23;;;5.40;85.40;;;;;;5108744;27;20616;-70
2022/01/28 01:21:42;;;;;;;11.05;7.07;;;5.40;85.30;;;;;;5117314;27;20197;-70
2022/01/28 01:24:20;;;;;;;11.43;6.70;;;5.40;85.30;;;;;;5113882;27;20209;-70
2022/01/28 01:26:48;;;;;;;9.40;6.35;;;5.40;85.30;;;;;;5111346;27;20295;-70
2022/01/28 01:29:19;;;;;;;10.27;6.38;;;5.40;85.20;;;;;;5114691;27;20202;-70
2022/01/28 01:31:47;;;;;;;14.00;6.63;;;5.30;85.20;;;;;;5110356;27;20217;-70
2022/01/28 01:34:18;;;;;;;8.88;6.20;;;5.30;85.10;;;;;;5099579;27;20205;-70
2022/01/28 01:36:46;;;;;;;11.43;6.75;;;5.30;85.20;;;;;;5113683;27;20211;-70
2022/01/28 01:39:21;;;;;;;10.98;8.10;;;5.30;85.30;;;;;;5115873;27;20210;-70
2022/01/28 01:41:55;;;;;;;13.68;8.25;;;5.30;85.20;;;;;;5112090;28;20221;-70
2022/01/28 01:44:33;;;;;;;12.70;8.82;;;5.30;85.30;;;;;;5107290;28;20261;-70
2022/01/28 01:52:00;;;;;;;16.52;9.75;;;5.30;85.40;;;;;;5114332;27;20233;-70
2022/01/28 01:52:51;;;;;;;18.13;10.45;;;5.30;85.50;;;;;;5110956;28;20619;-70
2022/01/28 01:55:21;;;;;;;11.88;9.13;;;5.30;85.50;;;;;;5110636;28;20222;-70
2022/01/28 01:57:49;;;;;;;13.27;9.57;;;5.30;85.50;;;;;;5111679;27;20186;-70
2022/01/28 02:00:18;;;;;;;18.85;10.35;;;5.30;85.40;;;;;;5108014;28;20263;-70
2022/01/28 02:02:49;;;;;;;16.52;10.20;;;5.40;85.50;;;;;;5113646;28;20227;-70
2022/01/28 02:05:18;;;;;;;12.43;9.50;;;5.40;85.50;;;;;;5116444;28;20304;-70
2022/01/28 02:07:46;;;;;;;15.15;9.00;;;5.40;85.40;;;;;;5112512;28;20198;-70
2022/01/28 02:10:15;;;;;;;18.42;9.85;;;5.40;85.40;;;;;;5108837;28;20858;-70
2022/01/28 02:12:50;;;;;;;15.93;9.85;;;5.40;85.40;;;;;;5109127;28;20213;-69
2022/01/28 02:15:19;;;;;;;13.73;9.20;;;5.40;85.30;;;;;;5114516;27;20221;-70
2022/01/28 02:17:47;;;;;;;11.20;7.32;;;5.40;85.30;;;;;;5098783;27;20206;-69
2022/01/28 02:20:25;;;;;;;13.30;8.43;;;5.40;85.20;;;;;;5101306;27;20259;-70
2022/01/28 02:22:54;;;;;;;12.43;8.43;;;5.30;85.20;;;;;;5118385;27;20213;-70
2022/01/28 02:25:27;;;;;;;13.27;8.85;;;5.30;85.30;;;;;;5103232;27;20225;-70
2022/01/28 02:27:58;;;;;;;12.25;9.00;;;5.30;85.30;;;;;;5112083;27;20748;-70
2022/01/28 02:30:27;;;;;;;14.70;8.43;;;5.30;85.40;;;;;;5119661;27;20644;-70
2022/01/28 02:33:01;;;;;;;14.27;8.93;;;5.30;85.40;;;;;;5113942;27;20721;-70
2022/01/28 02:35:30;;;;;;;13.65;8.95;;;5.30;85.40;;;;;;5117155;27;20218;-70
2022/01/28 02:37:58;;;;;;;13.00;8.98;;;5.30;85.20;;;;;;5113323;27;20206;-70
2022/01/28 02:40:26;;;;;;;16.58;9.35;;;5.20;85.30;;;;;;5106865;27;20734;-70
2022/01/28 02:43:00;;;;;;;18.52;8.85;;;5.20;85.20;;;;;;5104386;27;20297;-70
2022/01/28 02:45:33;;;;;;;17.38;8.85;;;5.20;85.30;;;;;;5112383;27;20230;-70
2022/01/28 02:48:06;;;;;;;11.38;8.10;;;5.20;85.30;;;;;;5114913;27;20264;-70
2022/01/28 02:50:42;;;;;;;14.00;8.40;;;5.20;85.20;;;;;;5113512;27;20194;-70
2022/01/28 02:53:21;;;;;;;13.70;8.05;;;5.20;85.20;;;;;;5114191;27;20296;-70
2022/01/28 02:55:56;;;;;;;13.88;8.50;;;5.10;85.20;;;;;;5095080;27;20238;-70
2022/01/28 02:58:25;;;;;;;11.20;6.32;;;5.10;85.10;;;;;;5116792;27;20716;-70
2022/01/28 03:00:55;;;;;;;10.02;6.78;;;5.10;85.10;;;;;;5112580;27;21186;-70
2022/01/28 03:03:24;;;;;;;14.55;7.20;;;5.00;85.20;;;;;;5119356;27;21055;-70
2022/01/28 03:05:54;;;;;;;13.48;7.85;;;5.00;85.30;;;;;;5110352;27;20703;-70
2022/01/28 03:08:26;;;;;;;10.15;7.00;;;5.00;85.30;;;;;;5113178;27;20213;-70
2022/01/28 03:13:58;;;;;;;12.35;8.73;;;5.00;85.20;;;;;;5108124;27;20275;-70
2022/01/28 03:16:29;;;;;;;11.13;6.97;;;5.00;85.20;;;;;;5115354;27;20241;-70
2022/01/28 03:19:01;;;;;;;12.88;7.75;;;4.90;85.20;;;;;;5118562;27;20910;-70
2022/01/28 03:21:42;;;;;;;12.15;6.65;;;4.90;85.30;;;;;;5116856;27;20193;-70
2022/01/28 03:24:16;;;;;;;13.20;6.00;;;5.00;85.30;;;;;;5113742;27;20259;-70
2022/01/28 03:26:45;;;;;;;8.48;6.15;;;5.00;85.30;;;;;;5117085;27;20278;-70
2022/01/28 03:29:13;;;;;;;16.45;6.18;;;5.00;85.30;;;;;;5115489;27;20207;-72
2022/01/28 03:31:41;;;;;;;10.68;6.82;;;5.00;85.20;;;;;;5091924;27;20254;-72
2022/01/28 03:34:09;;;;;;;12.38;6.13;;;4.90;85.20;;;;;;5102863;27;20256;-71
2022/01/28 03:36:39;;;;;;;11.45;6.55;;;4.90;85.20;;;;;;5115094;27;20225;-69
2022/01/28 03:39:09;;;;;;;10.82;5.82;;;4.90;85.20;;;;;;5116618;27;20210;-71
2022/01/28 03:41:37;;;;;;;8.90;5.60;;;4.90;85.20;;;;;;5113114;27;20198;-70
2022/01/28 03:44:06;;;;;;;12.60;5.80;;;4.90;85.20;;;;;;5111814;27;20217;-70
2022/01/28 03:46:34;;;;;;;13.93;5.00;;;4.90;85.30;;;;;;5111910;27;20249;-70
2022/01/28 03:49:03;;;;;;;16.90;5.63;;;4.90;85.20;;;;;;5115982;27;20209;-69
2022/01/28 03:51:31;;;;;;;9.68;5.65;;;4.90;85.00;;;;;;5094658;27;20206;-69
2022/01/28 03:54:00;;;;;;;11.65;5.45;;;4.90;85.10;;;;;;5099867;27;20286;-70
2022/01/28 03:56:28;;;;;;;8.80;5.80;;;4.90;85.20;;;;;;5112863;27;20274;-70
2022/01/28 03:58:56;;;;;;;18.20;5.82;;;4.90;85.20;;;;;;5116289;27;20675;-70
2022/01/28 04:01:29;;;;;;;11.40;5.95;;;4.90;85.20;;;;;;5116140;27;20221;-69
2022/01/28 04:04:45;;;;;;;7.93;5.05;;;4.90;85.10;;;;;;5114160;27;20220;-69
2022/01/28 04:12:36;;;;;;;20.38;6.50;;;4.80;85.10;;;;;;5110266;27;20198;-70
2022/01/28 04:15:19;;;;;;;11.18;6.13;;;4.80;85.10;;;;;;5110699;27;20210;-70
2022/01/28 04:17:48;;;;;;;8.13;5.53;;;4.80;85.00;;;;;;5115123;27;20656;-70
2022/01/28 04:20:16;;;;;;;14.30;6.40;;;4.80;85.00;;;;;;5115152;27;20263;-70
2022/01/28 04:22:44;;;;;;;10.63;6.05;;;4.80;85.10;;;;;;5091904;27;20256;-70
2022/01/28 04:25:14;;;;;;;9.55;5.43;;;4.80;85.10;;;;;;5111200;27;20229;-70
2022/01/28 04:27:42;;;;;;;11.60;6.45;;;4.80;85.10;;;;;;5113604;27;20316;-70
2022/01/28 04:30:10;;;;;;;7.95;5.95;;;4.80;85.10;;;;;;5113182;27;20202;-70
2022/01/28 04:32:39;;;;;;;11.20;6.00;;;4.80;85.10;;;;;;5105571;27;20799;-70
2022/01/28 04:35:08;;;;;;;10.75;6.50;;;4.80;85.10;;;;;;5094498;27;20297;-70
2022/01/28 04:37:44;;;;;;;13.70;5.57;;;4.90;85.00;;;;;;5113060;27;20193;-70
2022/01/28 04:40:16;;;;;;;9.75;5.00;;;4.90;85.00;;;;;;5114542;27;20661;-70
2022/01/28 04:43:03;;;;;;;9.65;5.90;;;4.90;85.00;;;;;;5110730;27;20285;-70
2022/01/28 04:45:39;;;;;;;8.60;5.15;;;4.90;85.00;;;;;;5113826;27;20273;-70
2022/01/28 04:48:16;;;;;;;7.00;4.82;;;4.90;85.00;;;;;;5113134;27;20247;-70
2022/01/28 04:50:55;;;;;;;13.43;6.68;;;4.90;85.00;;;;;;5113724;27;20267;-70
2022/01/28 04:53:37;;;;;;;9.90;4.65;;;4.90;85.00;;;;;;5112386;27;20678;-70
2022/01/28 04:56:18;;;;;;;9.95;5.32;;;4.90;85.00;;;;;;5112494;27;20698;-70
2022/01/28 04:58:58;;;;;;;9.93;5.07;;;4.90;85.00;;;;;;5114523;27;20691;-70
2022/01/28 05:02:00;;;;;;;6.68;4.65;;;5.00;84.90;;;;;;5116770;27;20225;-70
2022/01/28 05:04:48;;;;;;;8.00;4.30;;;5.00;84.80;;;;;;5110074;27;20241;-70
2022/01/28 05:07:37;;;;;;;6.05;4.20;;;4.90;84.70;;;;;;5114533;27;20202;-70
2022/01/28 05:24:17;;;;;;;10.02;4.43;;;4.90;84.60;;;;;;5109510;28;20769;-70
2022/01/28 05:26:54;;;;;;;8.27;4.55;;;4.90;84.70;;;;;;5116601;28;20298;-70
2022/01/28 05:29:24;;;;;;;6.47;4.20;;;4.90;84.70;;;;;;5094446;28;20205;-70
2022/01/28 05:31:52;;;;;;;8.95;4.47;;;4.90;84.80;;;;;;5109516;28;20295;-70
2022/01/28 05:34:23;;;;;;;11.30;4.10;;;5.00;84.80;;;;;;5114735;28;20198;-70
2022/01/28 05:36:52;;;;;;;8.52;4.25;;;5.00;84.70;;;;;;5115910;27;20218;-71
2022/01/28 05:39:20;;;;;;;8.75;4.15;;;5.00;84.60;;;;;;5115580;27;20221;-70
2022/01/28 05:41:48;;;;;;;7.28;3.85;;;5.00;84.50;;;;;;5106002;28;20210;-70
2022/01/28 05:44:18;;;;;;;8.52;4.13;;;5.00;84.60;;;;;;5111116;28;20230;-70
2022/01/28 05:46:48;;;;;;;6.57;3.95;;;5.00;84.70;;;;;;5110152;28;20710;-70
2022/01/28 05:49:16;;;;;;;10.48;4.65;;;5.00;84.70;;;;;;5117267;27;20262;-70
2022/01/28 05:51:44;;;;;;;7.72;4.07;;;5.00;84.60;;;;;;5114962;27;20206;-70
2022/01/28 05:54:12;;;;;;;7.35;3.55;;;5.00;84.60;;;;;;5113223;27;20205;-70
2022/01/28 05:56:40;;;;;;;11.43;4.10;;;5.00;84.60;;;;;;5115316;27;20266;-70
2022/01/28 05:59:08;;;;;;;9.85;3.80;;;5.00;84.60;;;;;;5114009;27;20258;-70
2022/01/28 06:01:36;;;;;;;6.75;3.80;;;5.00;84.50;;;;;;5113127;27;20625;-69
2022/01/28 06:04:06;;;;;;;6.65;3.40;;;5.00;84.60;;;;;;5113606;27;20289;-69
2022/01/28 06:06:34;;;;;;;8.30;3.70;;;5.10;84.40;;;;;;5111349;27;20295;-70
2022/01/28 06:09:03;;;;;;;11.48;4.32;;;5.10;84.50;;;;;;5115535;27;20190;-70
2022/01/28 06:11:31;;;;;;;9.18;3.65;;;5.10;84.40;;;;;;5118530;27;20212;-70
2022/01/28 06:13:59;;;;;;;9.25;3.20;;;5.10;84.50;;;;;;5111887;27;20258;-70
2022/01/28 06:16:27;;;;;;;5.60;3.45;;;5.10;84.40;;;;;;5119331;27;20597;-70
2022/01/28 06:18:55;;;;;;;11.02;3.90;;;5.10;84.30;;;;;;5112031;27;20276;-70
2022/01/28 06:21:24;;;;;;;8.05;3.72;;;5.10;84.20;;;;;;5110803;27;20223;-70
2022/01/28 06:23:52;;;;;;;12.32;5.03;;;5.10;84.20;;;;;;5091462;27;20198;-70
2022/01/28 06:26:20;;;;;;;8.90;3.53;;;5.10;84.20;;;;;;5110672;27;20326;-70
2022/01/28 06:28:49;;;;;;;13.63;4.50;;;5.10;83.90;;;;;;5113045;27;20253;-70
2022/01/28 06:31:17;;;;;;;13.48;4.65;;;5.10;84.00;;;;;;5111003;27;20229;-70
2022/01/28 06:33:49;;;;;;;9.27;4.05;;;5.00;83.90;;;;;;5113846;27;20202;-70
2022/01/28 06:36:17;;;;;;;9.55;3.78;;;5.00;84.10;;;;;;5118358;27;20274;-70
2022/01/28 06:38:46;;;;;;;7.22;3.47;;;5.00;84.00;;;;;;5115905;27;20190;-70
2022/01/28 06:41:14;;;;;;;8.85;3.95;;;5.00;84.10;;;;;;5119336;27;20258;-70
2022/01/28 06:43:42;;;;;;;12.10;4.18;;;5.00;83.90;;;;;;5118242;27;20824;-70
2022/01/28 06:46:17;;;;;;;10.07;4.50;;;5.00;84.10;;;;;;5115202;27;20238;-70
2022/01/28 06:48:45;;;;;;;11.70;5.15;;;5.00;84.10;;;;;;5116327;27;20538;-71
2022/01/28 06:51:13;;;;;;;9.77;4.55;;;5.00;84.10;;;;;;5115271;27;20201;-71
2022/01/28 06:53:41;;;;;;;12.13;4.13;;;5.00;84.00;;;;;;5113914;27;20254;-71
2022/01/28 06:56:10;;;;;;;14.65;4.80;;;5.00;83.90;;;;;;5121204;27;20222;-71
2022/01/28 06:58:38;;;;;;;13.55;4.38;;;5.00;84.00;;;;;;5114542;27;20274;-70
2022/01/28 07:01:06;;;;;;;15.70;4.03;;;5.00;84.00;;;;;;5111702;27;20768;-71
2022/01/28 07:03:34;;;;;;;11.98;4.32;;;5.00;84.00;;;;;;5117459;27;20190;-70
2022/01/28 07:06:02;;;;;;;12.13;4.43;;;5.00;84.10;;;;;;5115834;27;20225;-70
2022/01/28 07:08:30;;;;;;;15.43;4.47;;;5.00;84.10;;;;;;5118887;27;20193;-71
2022/01/28 07:10:58;;;;;;;12.23;4.95;;;5.00;84.10;;;;;;5117671;27;20266;-70
2022/01/28 07:13:27;;;;;;;8.68;4.00;;;5.00;84.00;;;;;;5116852;27;20627;-70
2022/01/28 07:15:55;;;;;;;10.70;3.40;;;5.00;84.10;;;;;;5113428;27;20234;-70
2022/01/28 07:18:24;;;;;;;11.75;4.05;;;5.00;84.00;;;;;;5117683;27;20212;-70
2022/01/28 07:20:52;;;;;;;12.73;3.92;;;5.00;84.00;;;;;;5112650;27;20197;-71
2022/01/28 07:23:20;;;;;;;12.13;4.15;;;5.00;84.00;;;;;;5114676;27;20604;-70
2022/01/28 07:25:48;;;;;;;12.43;4.03;;;5.00;84.10;;;;;;5117268;27;20233;-71
2022/01/28 07:28:15;;;;;;;13.27;4.38;;;5.00;84.00;;;;;;5113361;27;20237;-70
2022/01/28 07:30:45;;;;;;;8.90;3.88;;;5.00;84.10;;;;;;5115556;27;20241;-70
2022/01/28 07:33:13;;;;;;;14.85;4.88;;;5.00;84.10;;;;;;5112577;27;20223;-70
2022/01/28 07:35:41;;;;;;;7.90;4.45;;;5.00;84.10;;;;;;5113887;27;20359;-70
2022/01/28 07:38:09;;;;;;;9.23;4.13;;;5.10;84.00;;;;;;5113360;27;20239;-70
2022/01/28 07:40:37;;;;;;;11.85;4.32;;;5.10;83.90;;;;;;5117719;27;20271;-71
2022/01/28 07:43:05;;;;;;;8.63;4.57;;;5.00;83.90;;;;;;5114789;27;20193;-70
2022/01/28 07:45:33;;;;;;;12.65;5.07;;;5.00;84.00;;;;;;5113929;27;20315;-70
2022/01/28 07:48:02;;;;;;;10.75;4.43;;;5.00;84.00;;;;;;5110281;27;20212;-70
2022/01/28 07:50:30;;;;;;;16.17;4.90;;;4.90;84.00;;;;;;5115491;27;20194;-71
2022/01/28 07:52:59;;;;;;;19.67;4.65;;;4.90;84.00;;;;;;5096867;27;20201;-70
2022/01/28 07:55:27;;;;;;;9.95;4.13;;;4.90;84.00;;;;;;5113701;27;20222;-70
2022/01/28 07:57:55;;;;;;;9.20;4.38;;;4.90;84.10;;;;;;5113355;27;20651;-70
2022/01/28 08:00:26;;;;;;;15.18;5.13;;;4.90;84.10;;;;;;5114483;27;20193;-71
2022/01/28 08:02:59;;;;;;;8.90;3.58;;;4.90;84.10;;;;;;5115125;27;20702;-72
2022/01/28 08:05:28;;;;;;;7.90;3.53;;;4.90;84.10;;;;;;5118726;27;20218;-72
2022/01/28 08:07:58;;;;;;;13.48;4.35;;;4.90;84.20;;;;;;5111898;27;20604;-72
2022/01/28 08:10:32;;;;;;;10.88;3.65;;;4.90;84.10;;;;;;5109945;27;20219;-71
2022/01/28 08:13:03;;;;;;;15.05;4.05;;;4.90;84.10;;;;;;5110316;27;20197;-72
2022/01/28 08:15:31;;;;;;;5.30;2.78;;;4.90;84.20;;;;;;5109742;27;20897;-72
2022/01/28 08:17:59;;;;;;;9.85;3.05;;;4.90;84.30;;;;;;5116316;27;20217;-72
2022/01/28 08:20:29;;;;;;;7.05;2.42;;;4.90;84.30;;;;;;5118747;27;20275;-70
2022/01/28 08:22:58;;;;;;;9.80;2.97;;;4.90;84.20;;;;;;5115900;27;20239;-70
2022/01/28 08:25:32;;;;;;;6.57;2.75;;;4.90;84.20;;;;;;5116826;27;20382;-69
2022/01/28 08:28:02;;;;;;;5.40;2.70;;;4.90;84.20;;;;;;5114601;27;20275;-70
2022/01/28 08:30:31;;;;;;;7.35;2.70;;;4.90;84.30;;;;;;5111936;27;20238;-70
2022/01/28 08:32:59;;;;;;;8.23;2.78;;;4.90;84.50;;;;;;5112606;27;20252;-70
2022/01/28 08:35:32;;;;;;;6.63;2.63;;;5.00;84.50;;;;;;5114664;27;20225;-70
2022/01/28 08:38:13;;;;;;;5.28;3.08;;;5.00;84.30;;;;;;5113649;27;20204;-70
2022/01/28 08:40:41;;;;;;;7.25;3.10;;;5.00;84.40;;;;;;5105024;27;20346;-70
2022/01/28 08:43:09;;;;;;;9.23;2.60;;;5.10;84.20;;;;;;5114989;27;20243;-70
2022/01/28 08:45:37;;;;;;;8.05;2.65;;;5.10;84.20;;;;;;5110791;27;20598;-70
2022/01/28 08:48:05;;;;;;;5.30;2.70;;;5.10;84.20;;;;;;5112989;27;20226;-70
2022/01/28 08:50:35;;;;;;;6.03;2.70;;;5.10;84.20;;;;;;5109729;27;20713;-70
2022/01/28 08:53:03;;;;;;;6.15;2.58;;;5.10;84.20;;;;;;5114875;27;20202;-70
2022/01/28 08:55:32;;;;;;;7.38;2.88;;;5.10;84.30;;;;;;5112982;27;20224;-70
2022/01/28 08:57:59;;;;;;;13.25;3.15;;;5.10;84.10;;;;;;5109322;27;20247;-70
2022/01/28 09:00:27;;;;;;;8.20;2.60;;;5.10;84.10;;;;;;5115721;27;20238;-70
2022/01/28 09:02:55;;;;;;;6.78;2.95;;;5.10;84.20;;;;;;5113345;27;20200;-70
2022/01/28 09:05:23;;;;;;;6.05;3.60;;;5.10;84.30;;;;;;5115949;27;20225;-70
2022/01/28 09:07:53;;;;;;;6.90;3.47;;;5.10;84.30;;;;;;5113780;27;20953;-70
2022/01/28 09:10:25;;;;;;;15.68;4.78;;;5.10;84.20;;;;;;5113590;27;20205;-71
2022/01/28 09:13:10;;;;;;;14.38;4.38;;;5.10;84.30;;;;;;5095526;28;20822;-71
2022/01/28 09:15:41;;;;;;;8.10;4.30;;;5.20;84.30;;;;;;5111185;27;20245;-71
2022/01/28 09:18:10;;;;;;;10.88;4.68;;;5.20;84.30;;;;;;5112197;27;20289;-70
2022/01/28 09:20:39;;;;;;;10.90;4.47;;;5.20;84.30;;;;;;5111732;28;20251;-71
2022/01/28 09:23:09;;;;;;;12.88;4.28;;;5.20;84.40;;;;;;5101538;28;20197;-70
2022/01/28 09:25:37;;;;;;;11.32;4.18;;;5.20;84.30;;;;;;5112228;28;20711;-70
2022/01/28 09:28:06;;;;;;;11.95;4.57;;;5.20;84.30;;;;;;5110557;28;20214;-70
2022/01/28 09:30:34;;;;;;;10.15;4.28;;;5.20;84.40;;;;;;5106997;28;20285;-71
2022/01/28 09:33:03;;;;;;;16.75;5.00;;;5.20;84.50;;;;;;5112956;28;20213;-70
2022/01/28 09:35:31;;;;;;;10.10;3.92;;;5.20;84.50;;;;;;5110399;28;20221;-70
2022/01/28 09:37:59;;;;;;;10.10;4.35;;;5.30;84.40;;;;;;5113437;28;20250;-70
2022/01/28 09:40:29;;;;;;;11.05;4.95;;;5.30;84.30;;;;;;5108778;28;20677;-70
2022/01/28 09:42:59;;;;;;;13.10;4.70;;;5.30;84.40;;;;;;5112355;28;20254;-70
2022/01/28 09:45:27;;;;;;;10.55;4.65;;;5.30;84.40;;;;;;5094096;28;21101;-70
2022/01/28 09:47:57;;;;;;;10.45;4.35;;;5.30;84.50;;;;;;5110122;28;20214;-70
2022/01/28 09:50:28;;;;;;;12.35;4.30;;;5.30;84.50;;;;;;5113763;27;20209;-70
2022/01/28 09:52:57;;;;;;;17.92;4.10;;;5.40;84.50;;;;;;5107940;28;20596;-70
2022/01/28 09:55:28;;;;;;;11.80;4.88;;;5.40;84.60;;;;;;5116641;28;20226;-70
2022/01/28 09:58:00;;;;;;;12.55;4.15;;;5.40;84.60;;;;;;5112741;28;20190;-70
2022/01/28 10:00:28;;;;;;;12.00;4.55;;;5.40;84.50;;;;;;5113280;28;20242;-70
2022/01/28 10:02:59;;;;;;;14.63;5.22;;;5.40;84.40;;;;;;5111759;28;20560;-70
2022/01/28 10:05:29;;;;;;;12.55;5.10;;;5.40;84.50;;;;;;5114525;28;20322;-70
2022/01/28 10:08:07;;;;;;;11.98;4.55;;;5.40;84.50;;;;;;5114860;28;20261;-71
2022/01/28 10:10:54;;;;;;;11.70;4.97;;;5.40;84.60;;;;;;5113937;28;20201;-70
2022/01/28 10:13:28;;;;;;;12.50;5.03;;;5.40;84.60;;;;;;5103080;28;21082;-70
2022/01/28 10:16:05;;;;;;;13.55;4.82;;;5.40;84.60;;;;;;5113243;28;20245;-70
2022/01/28 10:18:46;;;;;;;17.40;6.85;;;5.40;84.70;;;;;;5093978;28;20556;-71
2022/01/28 10:21:20;;;;;;;12.35;4.72;;;5.40;84.60;;;;;;5115112;28;20933;-70
2022/01/28 10:24:10;;;;;;;18.92;5.22;;;5.50;84.60;;;;;;5112055;28;20206;-70
2022/01/28 10:26:43;;;;;;;14.15;5.32;;;5.50;84.50;;;;;;5114342;27;20214;-71
2022/01/28 10:29:13;;;;;;;14.60;4.90;;;5.50;84.60;;;;;;5113765;28;20870;-70
2022/01/28 10:31:51;;;;;;;13.07;5.07;;;5.50;84.70;;;;;;5092357;28;20327;-70
2022/01/28 10:34:23;;;;;;;13.13;5.65;;;5.50;84.80;;;;;;5096421;27;20209;-70
2022/01/28 10:37:06;;;;;;;12.30;5.60;;;5.50;84.90;;;;;;5115027;27;20213;-70
2022/01/28 10:39:39;;;;;;;14.98;5.43;;;5.50;84.70;;;;;;5118993;27;20246;-70
2022/01/28 10:42:09;;;;;;;9.40;5.80;;;5.60;84.70;;;;;;5116626;27;20256;-71
2022/01/28 10:44:55;;;;;;;12.80;5.55;;;5.60;84.60;;;;;;5117429;27;20198;-70
2022/01/28 10:47:32;;;;;;;12.10;5.25;;;5.60;84.60;;;;;;5116390;27;20721;-70
2022/01/28 10:50:00;;;;;;;16.63;5.75;;;5.60;84.60;;;;;;5115824;27;20202;-70
2022/01/28 10:52:33;;;;;;;18.38;6.90;;;5.60;84.60;;;;;;5117326;27;20558;-70
2022/01/28 10:55:01;;;;;;;20.13;6.10;;;5.70;84.50;;;;;;5118516;27;20250;-70
2022/01/28 10:57:32;;;;;;;13.82;4.80;;;5.70;84.50;;;;;;5116048;27;20190;-70
2022/01/28 11:00:03;;;;;;;9.95;4.20;;;5.60;84.10;;;;;;5120451;27;20251;-70
2022/01/28 11:02:31;;;;;;;13.43;3.85;;;5.60;84.40;;;;;;5116440;27;20249;-70
2022/01/28 11:05:00;;;;;;;10.50;3.97;;;5.60;84.40;;;;;;5115713;27;20280;-70
2022/01/28 11:07:29;;;;;;;8.48;3.63;;;5.60;84.40;;;;;;5110971;27;20259;-70
2022/01/28 11:09:56;;;;;;;7.63;3.72;;;5.60;84.20;;;;;;5111001;27;20203;-70
2022/01/28 11:12:25;;;;;;;13.57;4.80;;;5.50;84.20;;;;;;5091181;27;20633;-70
2022/01/28 11:14:54;;;;;;;11.25;4.03;;;5.50;84.30;;;;;;5116850;27;20659;-69
2022/01/28 11:17:22;;;;;;;9.48;4.32;;;5.50;84.40;;;;;;5115088;27;20321;-70
2022/01/28 11:19:53;;;;;;;16.08;5.35;;;5.50;84.50;;;;;;5112712;27;20226;-70
2022/01/28 11:22:39;;;;;;;13.85;5.07;;;5.50;84.60;;;;;;5115838;27;20202;-69
2022/01/28 11:25:21;;;;;;;9.40;5.18;;;5.60;84.60;;;;;;5111600;27;20282;-69
2022/01/28 11:27:49;;;;;;;12.48;5.20;;;5.60;84.70;;;;;;5111948;27;20275;-70
2022/01/28 11:30:23;;;;;;;14.98;4.82;;;5.70;84.70;;;;;;5097093;27;20202;-70
2022/01/28 11:33:00;;;;;;;12.10;4.85;;;5.70;84.70;;;;;;5110769;27;20210;-71
2022/01/28 11:35:31;;;;;;;12.20;4.57;;;5.80;84.60;;;;;;5115104;27;20224;-70
2022/01/28 11:38:04;;;;;;;16.10;4.38;;;5.90;84.60;;;;;;5118222;27;20806;-71
2022/01/28 11:40:50;;;;;;;12.88;4.97;;;5.90;84.50;;;;;;5111339;27;20206;-70
2022/01/28 11:43:19;;;;;;;14.32;4.00;;;6.00;84.40;;;;;;5118324;27;20249;-68
2022/01/28 11:46:05;;;;;;;10.77;4.10;;;6.00;84.20;;;;;;5111652;27;20628;-70
2022/01/28 11:49:10;;;;;;;14.35;4.32;;;6.10;84.20;;;;;;5113183;27;20283;-69
2022/01/28 11:51:41;;;;;;;13.80;4.97;;;6.10;83.70;;;;;;5104331;27;20210;-70
2022/01/28 11:54:11;;;;;;;9.30;3.65;;;6.00;83.50;;;;;;5112342;27;20195;-70
2022/01/28 11:56:41;;;;;;;13.45;4.65;;;6.10;84.00;;;;;;5112921;27;20753;-69
2022/01/28 11:59:10;;;;;;;18.60;4.90;;;6.10;83.80;;;;;;5113190;27;20247;-68
2022/01/28 12:02:11;;;;;;;7.28;3.58;;;6.20;83.90;;;;;;5109492;27;20901;-70
2022/01/28 12:04:41;;;;;;;10.75;4.10;;;6.20;83.70;;;;;;5113301;27;20245;-70
2022/01/28 12:07:13;;;;;;;11.70;3.72;;;6.20;84.00;;;;;;5112431;27;20210;-68
2022/01/28 12:09:44;;;;;;;19.27;4.90;;;6.30;83.90;;;;;;5111818;27;20273;-69
2022/01/28 12:12:13;;;;;;;13.25;4.32;;;6.30;83.80;;;;;;5113194;27;20449;-72
2022/01/28 12:15:04;;;;;;;15.98;4.07;;;6.30;83.50;;;;;;5115912;27;20226;-71
2022/01/28 12:18:04;;;;;;;13.00;4.43;;;6.30;83.40;;;;;;5112079;27;20234;-70
2022/01/28 12:20:45;;;;;;;10.20;4.00;;;6.30;83.60;;;;;;5112610;27;20317;-70
2022/01/28 12:23:28;;;;;;;12.32;4.05;;;6.30;83.40;;;;;;5109198;27;20682;-69
2022/01/28 12:25:58;;;;;;;12.50;4.20;;;6.30;83.30;;;;;;5110992;27;20308;-69
2022/01/28 12:28:51;;;;;;;14.52;3.72;;;6.30;83.40;;;;;;5115905;27;20206;-69
2022/01/28 12:31:23;;;;;;;16.27;4.35;;;6.30;83.10;;;;;;5115432;27;20205;-70
2022/01/28 12:33:54;;;;;;;11.70;4.07;;;6.30;83.20;;;;;;5109267;27;20573;-69
2022/01/28 12:36:24;;;;;;;13.27;4.50;;;6.30;82.70;;;;;;5093235;28;20239;-68
2022/01/28 12:39:08;;;;;;;13.18;4.28;;;6.30;82.90;;;;;;5095134;28;20579;-69
2022/01/28 12:41:43;;;;;;;20.85;5.00;;;6.30;83.10;;;;;;5099570;28;20203;-69
2022/01/28 12:44:12;;;;;;;8.23;3.67;;;6.40;82.90;;;;;;5097162;28;20783;-71
2022/01/28 12:46:40;;;;;;;13.70;4.45;;;6.40;82.90;;;;;;5094603;28;20235;-70
2022/01/28 12:49:12;;;;;;;11.23;4.15;;;6.40;82.70;;;;;;5094566;28;20307;-68
2022/01/28 12:51:41;;;;;;;11.10;4.30;;;6.40;82.20;;;;;;5091199;28;20722;-68
2022/01/28 12:54:09;;;;;;;12.20;3.60;;;6.40;82.50;;;;;;5089890;28;20230;-67
2022/01/28 12:56:40;;;;;;;10.80;4.20;;;6.40;82.10;;;;;;5094122;28;20222;-69
2022/01/28 12:59:10;;;;;;;10.13;4.38;;;6.40;82.00;;;;;;5094887;28;20214;-70
2022/01/28 13:01:38;;;;;;;14.35;4.70;;;6.40;82.30;;;;;;5103796;27;20261;-68
2022/01/28 13:04:12;;;;;;;14.60;5.00;;;6.40;82.20;;;;;;5114370;27;20215;-68
2022/01/28 13:07:00;;;;;;;10.25;4.40;;;6.40;82.00;;;;;;5101577;28;21359;-71
2022/01/28 13:09:33;;;;;;;11.50;4.10;;;6.40;82.10;;;;;;5115362;27;20275;-71
2022/01/28 13:12:04;;;;;;;12.98;4.47;;;6.50;82.10;;;;;;5112161;27;21729;-67
2022/01/28 13:14:34;;;;;;;9.60;4.15;;;6.50;81.20;;;;;;5116724;27;20222;-70
2022/01/28 13:17:05;;;;;;;6.57;3.90;;;6.50;81.70;;;;;;5110422;27;20425;-71
2022/01/28 13:19:33;;;;;;;10.88;4.60;;;6.50;81.40;;;;;;5116274;27;20273;-69
2022/01/28 13:22:03;;;;;;;15.30;4.00;;;6.40;80.50;;;;;;5115645;27;20225;-68
2022/01/28 13:24:31;;;;;;;16.52;4.88;;;6.40;81.60;;;;;;5117616;27;20225;-71
2022/01/28 13:27:00;;;;;;;15.77;4.10;;;6.40;80.70;;;;;;5115412;27;20743;-69
2022/01/28 13:29:32;;;;;;;13.35;4.80;;;6.40;81.00;;;;;;5102944;27;20245;-68
2022/01/28 13:32:02;;;;;;;8.73;4.20;;;6.40;81.50;;;;;;5115875;27;20309;-68
2022/01/28 13:34:46;;;;;;;11.18;3.80;;;6.50;81.60;;;;;;5117328;27;20575;-69
2022/01/28 13:37:32;;;;;;;13.05;4.20;;;6.50;81.20;;;;;;5119721;27;20226;-70
2022/01/28 13:40:00;;;;;;;12.63;3.20;;;6.60;81.30;;;;;;5117734;27;20252;-71
2022/01/28 13:42:29;;;;;;;11.25;4.25;;;6.60;81.00;;;;;;5117314;27;20196;-68
2022/01/28 13:44:58;;;;;;;11.00;3.38;;;6.60;80.80;;;;;;5114182;27;20190;-68
2022/01/28 13:47:26;;;;;;;9.48;3.60;;;6.60;80.50;;;;;;5116137;27;20239;-69
2022/01/28 13:49:59;;;;;;;10.68;3.30;;;6.70;79.90;;;;;;5116392;27;20205;-68
2022/01/28 13:52:44;;;;;;;14.18;3.97;;;6.60;79.40;;;;;;5103068;27;20209;-69
2022/01/28 13:55:34;;;;;;;9.85;3.60;;;6.60;79.80;;;;;;5117319;27;20239;-69
2022/01/28 13:58:03;;;;;;;10.68;3.92;;;6.60;79.40;;;;;;5112334;27;20200;-69